sensor_id;sensor_type;location;lat;lon;timestamp;P1;durP1;ratioP1;P2;durP2;ratioP2
10174;SDS011;18221;38.704;0.152;2023-03-21T00:05:47;18.17;;;11.23;;
10174;SDS011;18221;38.704;0.152;2023-03-21T00:08:18;21.57;;;11.10;;
10174;SDS011;18221;38.704;0.152;2023-03-21T00:10:54;19.07;;;11.30;;
10174;SDS011;18221;38.704;0.152;2023-03-21T00:13:24;18.10;;;10.87;;
10174;SDS011;18221;38.704;0.152;2023-03-21T00:15:57;22.50;;;11.33;;
10174;SDS011;18221;38.704;0.152;2023-03-21T00:18:33;16.80;;;11.40;;
10174;SDS011;18221;38.704;0.152;2023-03-21T00:21:06;13.57;;;10.30;;
10174;SDS011;18221;38.704;0.152;2023-03-21T00:23:39;16.90;;;11.50;;
10174;SDS011;18221;38.704;0.152;2023-03-21T00:26:09;18.23;;;11.10;;
10174;SDS011;18221;38.704;0.152;2023-03-21T00:28:41;15.10;;;10.50;;
10174;SDS011;18221;38.704;0.152;2023-03-21T00:31:10;19.03;;;11.60;;
10174;SDS011;18221;38.704;0.152;2023-03-21T00:33:41;18.70;;;11.70;;
10174;SDS011;18221;38.704;0.152;2023-03-21T00:36:11;20.67;;;11.57;;
10174;SDS011;18221;38.704;0.152;2023-03-21T00:38:40;21.47;;;13.43;;
10174;SDS011;18221;38.704;0.152;2023-03-21T00:41:10;20.80;;;11.73;;
10174;SDS011;18221;38.704;0.152;2023-03-21T00:43:40;19.50;;;12.10;;
10174;SDS011;18221;38.704;0.152;2023-03-21T00:46:09;20.63;;;12.03;;
10174;SDS011;18221;38.704;0.152;2023-03-21T00:48:38;24.87;;;13.47;;
10174;SDS011;18221;38.704;0.152;2023-03-21T00:51:11;19.23;;;12.63;;
10174;SDS011;18221;38.704;0.152;2023-03-21T00:53:50;22.07;;;13.00;;
10174;SDS011;18221;38.704;0.152;2023-03-21T00:56:22;17.33;;;13.03;;
10174;SDS011;18221;38.704;0.152;2023-03-21T00:58:50;23.50;;;13.17;;
10174;SDS011;18221;38.704;0.152;2023-03-21T01:01:19;20.23;;;13.33;;
10174;SDS011;18221;38.704;0.152;2023-03-21T01:03:49;20.23;;;13.57;;
10174;SDS011;18221;38.704;0.152;2023-03-21T01:06:30;23.00;;;12.63;;
10174;SDS011;18221;38.704;0.152;2023-03-21T01:09:03;25.90;;;14.13;;
10174;SDS011;18221;38.704;0.152;2023-03-21T01:11:33;21.43;;;12.33;;
10174;SDS011;18221;38.704;0.152;2023-03-21T01:14:02;23.40;;;13.03;;
10174;SDS011;18221;38.704;0.152;2023-03-21T01:16:31;20.37;;;12.63;;
10174;SDS011;18221;38.704;0.152;2023-03-21T01:19:01;28.30;;;12.50;;
10174;SDS011;18221;38.704;0.152;2023-03-21T01:21:31;21.80;;;13.00;;
10174;SDS011;18221;38.704;0.152;2023-03-21T01:24:01;22.33;;;11.97;;
10174;SDS011;18221;38.704;0.152;2023-03-21T01:26:30;18.07;;;11.97;;
10174;SDS011;18221;38.704;0.152;2023-03-21T01:28:58;22.80;;;12.90;;
10174;SDS011;18221;38.704;0.152;2023-03-21T01:31:27;18.77;;;12.23;;
10174;SDS011;18221;38.704;0.152;2023-03-21T01:33:56;16.07;;;11.80;;
10174;SDS011;18221;38.704;0.152;2023-03-21T01:36:26;20.70;;;13.37;;
10174;SDS011;18221;38.704;0.152;2023-03-21T01:38:55;20.47;;;13.07;;
10174;SDS011;18221;38.704;0.152;2023-03-21T01:41:24;19.40;;;12.30;;
10174;SDS011;18221;38.704;0.152;2023-03-21T01:43:56;22.57;;;12.57;;
10174;SDS011;18221;38.704;0.152;2023-03-21T01:46:33;17.07;;;11.43;;
10174;SDS011;18221;38.704;0.152;2023-03-21T01:49:06;23.50;;;12.80;;
10174;SDS011;18221;38.704;0.152;2023-03-21T01:51:43;21.83;;;11.63;;
10174;SDS011;18221;38.704;0.152;2023-03-21T01:54:18;20.70;;;12.17;;
10174;SDS011;18221;38.704;0.152;2023-03-21T01:56:51;22.33;;;13.17;;
10174;SDS011;18221;38.704;0.152;2023-03-21T01:59:24;17.83;;;11.80;;
10174;SDS011;18221;38.704;0.152;2023-03-21T02:02:02;18.67;;;12.97;;
10174;SDS011;18221;38.704;0.152;2023-03-21T02:04:34;26.67;;;12.53;;
10174;SDS011;18221;38.704;0.152;2023-03-21T02:07:06;15.90;;;12.87;;
10174;SDS011;18221;38.704;0.152;2023-03-21T02:09:41;24.47;;;13.57;;
10174;SDS011;18221;38.704;0.152;2023-03-21T02:12:14;17.57;;;11.70;;
10174;SDS011;18221;38.704;0.152;2023-03-21T02:14:43;20.73;;;14.43;;
10174;SDS011;18221;38.704;0.152;2023-03-21T02:17:17;20.30;;;13.87;;
10174;SDS011;18221;38.704;0.152;2023-03-21T02:20:04;20.70;;;14.60;;
10174;SDS011;18221;38.704;0.152;2023-03-21T02:23:18;18.87;;;13.90;;
10174;SDS011;18221;38.704;0.152;2023-03-21T02:29:42;22.97;;;14.03;;
10174;SDS011;18221;38.704;0.152;2023-03-21T02:32:58;22.50;;;14.67;;
10174;SDS011;18221;38.704;0.152;2023-03-21T02:36:24;28.90;;;14.77;;
10174;SDS011;18221;38.704;0.152;2023-03-21T02:39:07;26.27;;;15.17;;
10174;SDS011;18221;38.704;0.152;2023-03-21T02:41:44;25.27;;;14.53;;
10174;SDS011;18221;38.704;0.152;2023-03-21T02:44:21;23.03;;;14.20;;
10174;SDS011;18221;38.704;0.152;2023-03-21T02:47:02;18.43;;;13.90;;
10174;SDS011;18221;38.704;0.152;2023-03-21T02:49:39;20.50;;;13.90;;
10174;SDS011;18221;38.704;0.152;2023-03-21T02:52:14;22.70;;;15.80;;
10174;SDS011;18221;38.704;0.152;2023-03-21T02:54:50;23.37;;;15.10;;
10174;SDS011;18221;38.704;0.152;2023-03-21T02:57:21;22.87;;;14.60;;
10174;SDS011;18221;38.704;0.152;2023-03-21T02:59:50;26.43;;;15.57;;
10174;SDS011;18221;38.704;0.152;2023-03-21T03:02:22;25.00;;;15.23;;
10174;SDS011;18221;38.704;0.152;2023-03-21T03:04:55;25.13;;;14.83;;
10174;SDS011;18221;38.704;0.152;2023-03-21T03:07:28;21.73;;;16.43;;
10174;SDS011;18221;38.704;0.152;2023-03-21T03:10:20;28.13;;;16.13;;
10174;SDS011;18221;38.704;0.152;2023-03-21T03:13:06;25.87;;;16.97;;
10174;SDS011;18221;38.704;0.152;2023-03-21T03:15:52;30.50;;;17.13;;
10174;SDS011;18221;38.704;0.152;2023-03-21T03:18:38;28.40;;;16.63;;
10174;SDS011;18221;38.704;0.152;2023-03-21T03:21:17;25.33;;;16.40;;
10174;SDS011;18221;38.704;0.152;2023-03-21T03:23:56;30.07;;;17.43;;
10174;SDS011;18221;38.704;0.152;2023-03-21T03:26:32;24.93;;;15.87;;
10174;SDS011;18221;38.704;0.152;2023-03-21T03:29:06;25.27;;;16.40;;
10174;SDS011;18221;38.704;0.152;2023-03-21T03:31:41;26.60;;;15.57;;
10174;SDS011;18221;38.704;0.152;2023-03-21T03:34:17;25.70;;;16.97;;
10174;SDS011;18221;38.704;0.152;2023-03-21T03:36:53;24.30;;;15.87;;
10174;SDS011;18221;38.704;0.152;2023-03-21T03:39:28;24.93;;;15.47;;
10174;SDS011;18221;38.704;0.152;2023-03-21T03:42:07;25.97;;;16.40;;
10174;SDS011;18221;38.704;0.152;2023-03-21T03:44:44;24.10;;;16.00;;
10174;SDS011;18221;38.704;0.152;2023-03-21T03:47:15;23.67;;;15.40;;
10174;SDS011;18221;38.704;0.152;2023-03-21T03:49:51;27.67;;;16.93;;
10174;SDS011;18221;38.704;0.152;2023-03-21T03:52:28;25.03;;;15.17;;
10174;SDS011;18221;38.704;0.152;2023-03-21T03:55:02;26.20;;;15.93;;
10174;SDS011;18221;38.704;0.152;2023-03-21T03:57:33;18.80;;;15.27;;
10174;SDS011;18221;38.704;0.152;2023-03-21T04:00:03;22.93;;;16.43;;
10174;SDS011;18221;38.704;0.152;2023-03-21T04:02:37;25.03;;;15.67;;
10174;SDS011;18221;38.704;0.152;2023-03-21T04:05:07;23.43;;;15.10;;
10174;SDS011;18221;38.704;0.152;2023-03-21T04:07:36;24.00;;;15.07;;
10174;SDS011;18221;38.704;0.152;2023-03-21T04:10:05;24.27;;;15.77;;
10174;SDS011;18221;38.704;0.152;2023-03-21T04:12:36;23.07;;;15.40;;
10174;SDS011;18221;38.704;0.152;2023-03-21T04:15:05;17.80;;;14.40;;
10174;SDS011;18221;38.704;0.152;2023-03-21T04:17:35;22.60;;;14.03;;
10174;SDS011;18221;38.704;0.152;2023-03-21T04:20:05;23.83;;;13.73;;
10174;SDS011;18221;38.704;0.152;2023-03-21T04:22:35;21.67;;;13.60;;
10174;SDS011;18221;38.704;0.152;2023-03-21T04:25:04;21.30;;;13.17;;
10174;SDS011;18221;38.704;0.152;2023-03-21T04:27:34;16.93;;;12.20;;
10174;SDS011;18221;38.704;0.152;2023-03-21T04:30:04;19.70;;;12.63;;
10174;SDS011;18221;38.704;0.152;2023-03-21T04:32:36;20.80;;;11.90;;
10174;SDS011;18221;38.704;0.152;2023-03-21T04:35:05;16.43;;;11.60;;
10174;SDS011;18221;38.704;0.152;2023-03-21T04:37:36;16.43;;;11.93;;
10174;SDS011;18221;38.704;0.152;2023-03-21T04:40:06;18.40;;;10.83;;
10174;SDS011;18221;38.704;0.152;2023-03-21T04:42:38;18.50;;;11.93;;
10174;SDS011;18221;38.704;0.152;2023-03-21T04:45:07;17.47;;;11.03;;
10174;SDS011;18221;38.704;0.152;2023-03-21T04:47:36;20.67;;;11.70;;
10174;SDS011;18221;38.704;0.152;2023-03-21T04:50:05;15.17;;;11.57;;
10174;SDS011;18221;38.704;0.152;2023-03-21T04:52:35;17.20;;;11.57;;
10174;SDS011;18221;38.704;0.152;2023-03-21T04:55:05;18.70;;;11.67;;
10174;SDS011;18221;38.704;0.152;2023-03-21T04:57:35;17.43;;;11.47;;
10174;SDS011;18221;38.704;0.152;2023-03-21T05:00:06;19.43;;;11.30;;
10174;SDS011;18221;38.704;0.152;2023-03-21T05:02:38;16.57;;;11.70;;
10174;SDS011;18221;38.704;0.152;2023-03-21T05:05:07;20.50;;;11.57;;
10174;SDS011;18221;38.704;0.152;2023-03-21T05:07:36;22.60;;;12.13;;
10174;SDS011;18221;38.704;0.152;2023-03-21T05:10:06;16.40;;;11.27;;
10174;SDS011;18221;38.704;0.152;2023-03-21T05:12:39;14.17;;;10.27;;
10174;SDS011;18221;38.704;0.152;2023-03-21T05:15:08;18.40;;;10.93;;
10174;SDS011;18221;38.704;0.152;2023-03-21T05:17:38;15.97;;;10.13;;
10174;SDS011;18221;38.704;0.152;2023-03-21T05:20:08;16.20;;;10.70;;
10174;SDS011;18221;38.704;0.152;2023-03-21T05:22:42;15.67;;;10.17;;
10174;SDS011;18221;38.704;0.152;2023-03-21T05:25:14;14.37;;;10.10;;
10174;SDS011;18221;38.704;0.152;2023-03-21T05:28:01;17.93;;;10.50;;
10174;SDS011;18221;38.704;0.152;2023-03-21T05:30:30;12.50;;;8.50;;
10174;SDS011;18221;38.704;0.152;2023-03-21T05:32:59;13.83;;;9.80;;
10174;SDS011;18221;38.704;0.152;2023-03-21T05:35:28;12.40;;;8.67;;
10174;SDS011;18221;38.704;0.152;2023-03-21T05:37:57;11.73;;;8.33;;
10174;SDS011;18221;38.704;0.152;2023-03-21T05:40:26;12.53;;;8.10;;
10174;SDS011;18221;38.704;0.152;2023-03-21T05:42:55;16.30;;;8.83;;
10174;SDS011;18221;38.704;0.152;2023-03-21T05:45:25;13.40;;;9.70;;
10174;SDS011;18221;38.704;0.152;2023-03-21T05:47:53;13.17;;;8.90;;
10174;SDS011;18221;38.704;0.152;2023-03-21T05:50:22;16.30;;;10.43;;
10174;SDS011;18221;38.704;0.152;2023-03-21T05:52:50;16.10;;;10.47;;
10174;SDS011;18221;38.704;0.152;2023-03-21T05:55:19;20.13;;;11.10;;
10174;SDS011;18221;38.704;0.152;2023-03-21T05:57:47;13.67;;;9.63;;
10174;SDS011;18221;38.704;0.152;2023-03-21T06:00:16;14.07;;;10.47;;
10174;SDS011;18221;38.704;0.152;2023-03-21T06:02:48;18.40;;;11.70;;
10174;SDS011;18221;38.704;0.152;2023-03-21T06:05:16;15.60;;;11.13;;
10174;SDS011;18221;38.704;0.152;2023-03-21T06:07:45;18.43;;;12.47;;
10174;SDS011;18221;38.704;0.152;2023-03-21T06:10:14;18.87;;;12.90;;
10174;SDS011;18221;38.704;0.152;2023-03-21T06:12:42;25.63;;;14.10;;
10174;SDS011;18221;38.704;0.152;2023-03-21T06:15:11;20.93;;;13.53;;
10174;SDS011;18221;38.704;0.152;2023-03-21T06:17:41;17.13;;;12.30;;
10174;SDS011;18221;38.704;0.152;2023-03-21T06:20:11;23.67;;;14.53;;
10174;SDS011;18221;38.704;0.152;2023-03-21T06:22:40;26.23;;;15.93;;
10174;SDS011;18221;38.704;0.152;2023-03-21T06:25:09;20.17;;;14.97;;
10174;SDS011;18221;38.704;0.152;2023-03-21T06:27:38;24.23;;;14.60;;
10174;SDS011;18221;38.704;0.152;2023-03-21T06:30:07;19.87;;;14.20;;
10174;SDS011;18221;38.704;0.152;2023-03-21T06:32:37;26.37;;;15.50;;
10174;SDS011;18221;38.704;0.152;2023-03-21T06:35:06;22.53;;;15.50;;
10174;SDS011;18221;38.704;0.152;2023-03-21T06:37:37;18.43;;;12.67;;
10174;SDS011;18221;38.704;0.152;2023-03-21T06:40:06;22.50;;;14.53;;
10174;SDS011;18221;38.704;0.152;2023-03-21T06:42:36;20.27;;;13.23;;
10174;SDS011;18221;38.704;0.152;2023-03-21T06:45:05;23.23;;;13.87;;
10174;SDS011;18221;38.704;0.152;2023-03-21T06:47:35;20.73;;;15.83;;
10174;SDS011;18221;38.704;0.152;2023-03-21T06:50:04;25.37;;;15.20;;
10174;SDS011;18221;38.704;0.152;2023-03-21T06:52:33;24.43;;;15.03;;
10174;SDS011;18221;38.704;0.152;2023-03-21T06:55:04;22.27;;;15.37;;
10174;SDS011;18221;38.704;0.152;2023-03-21T06:57:34;22.83;;;14.50;;
10174;SDS011;18221;38.704;0.152;2023-03-21T07:00:04;21.33;;;13.80;;
10174;SDS011;18221;38.704;0.152;2023-03-21T07:02:35;26.20;;;16.13;;
10174;SDS011;18221;38.704;0.152;2023-03-21T07:05:04;23.40;;;15.30;;
10174;SDS011;18221;38.704;0.152;2023-03-21T07:09:34;25.43;;;13.63;;
10174;SDS011;18221;38.704;0.152;2023-03-21T07:12:03;15.80;;;12.17;;
10174;SDS011;18221;38.704;0.152;2023-03-21T07:14:31;16.40;;;11.37;;
10174;SDS011;18221;38.704;0.152;2023-03-21T07:17:00;17.77;;;11.93;;
10174;SDS011;18221;38.704;0.152;2023-03-21T07:19:29;17.27;;;11.23;;
10174;SDS011;18221;38.704;0.152;2023-03-21T07:21:58;16.10;;;11.23;;
10174;SDS011;18221;38.704;0.152;2023-03-21T07:24:27;15.87;;;9.73;;
10174;SDS011;18221;38.704;0.152;2023-03-21T07:26:57;13.67;;;10.70;;
10174;SDS011;18221;38.704;0.152;2023-03-21T07:29:26;20.53;;;12.63;;
10174;SDS011;18221;38.704;0.152;2023-03-21T07:31:55;16.40;;;12.20;;
10174;SDS011;18221;38.704;0.152;2023-03-21T07:34:24;20.07;;;12.43;;
10174;SDS011;18221;38.704;0.152;2023-03-21T07:36:57;12.33;;;10.20;;
10174;SDS011;18221;38.704;0.152;2023-03-21T07:39:26;16.87;;;12.87;;
10174;SDS011;18221;38.704;0.152;2023-03-21T07:41:58;18.47;;;12.27;;
10174;SDS011;18221;38.704;0.152;2023-03-21T07:44:30;15.87;;;11.57;;
10174;SDS011;18221;38.704;0.152;2023-03-21T07:47:01;20.70;;;13.60;;
10174;SDS011;18221;38.704;0.152;2023-03-21T07:49:30;19.73;;;12.87;;
10174;SDS011;18221;38.704;0.152;2023-03-21T07:51:59;20.33;;;12.47;;
10174;SDS011;18221;38.704;0.152;2023-03-21T07:54:28;15.13;;;11.07;;
10174;SDS011;18221;38.704;0.152;2023-03-21T07:56:59;17.97;;;11.60;;
10174;SDS011;18221;38.704;0.152;2023-03-21T07:59:28;14.83;;;11.60;;
10174;SDS011;18221;38.704;0.152;2023-03-21T08:01:57;16.20;;;11.50;;
10174;SDS011;18221;38.704;0.152;2023-03-21T08:04:26;17.93;;;11.40;;
10174;SDS011;18221;38.704;0.152;2023-03-21T08:06:55;16.90;;;10.90;;
10174;SDS011;18221;38.704;0.152;2023-03-21T08:09:24;17.40;;;11.20;;
10174;SDS011;18221;38.704;0.152;2023-03-21T08:11:53;17.87;;;11.77;;
10174;SDS011;18221;38.704;0.152;2023-03-21T08:14:25;14.90;;;10.30;;
10174;SDS011;18221;38.704;0.152;2023-03-21T08:16:56;16.47;;;9.93;;
10174;SDS011;18221;38.704;0.152;2023-03-21T08:19:25;12.80;;;9.70;;
10174;SDS011;18221;38.704;0.152;2023-03-21T08:21:53;11.70;;;8.47;;
10174;SDS011;18221;38.704;0.152;2023-03-21T08:24:24;15.60;;;8.77;;
10174;SDS011;18221;38.704;0.152;2023-03-21T08:26:52;12.97;;;10.17;;
10174;SDS011;18221;38.704;0.152;2023-03-21T08:29:21;11.23;;;7.53;;
10174;SDS011;18221;38.704;0.152;2023-03-21T08:31:51;16.60;;;10.17;;
10174;SDS011;18221;38.704;0.152;2023-03-21T08:45:07;12.57;;;8.23;;
10174;SDS011;18221;38.704;0.152;2023-03-21T08:47:37;12.07;;;9.00;;
10174;SDS011;18221;38.704;0.152;2023-03-21T08:50:10;12.50;;;8.47;;
10174;SDS011;18221;38.704;0.152;2023-03-21T08:52:45;11.10;;;7.57;;
10174;SDS011;18221;38.704;0.152;2023-03-21T08:55:14;13.67;;;9.13;;
10174;SDS011;18221;38.704;0.152;2023-03-21T08:57:47;14.33;;;8.93;;
10174;SDS011;18221;38.704;0.152;2023-03-21T09:00:17;11.10;;;8.17;;
10174;SDS011;18221;38.704;0.152;2023-03-21T09:02:47;13.30;;;7.97;;
10174;SDS011;18221;38.704;0.152;2023-03-21T09:05:20;13.37;;;8.90;;
10174;SDS011;18221;38.704;0.152;2023-03-21T09:07:50;13.47;;;8.43;;
10174;SDS011;18221;38.704;0.152;2023-03-21T09:10:19;17.90;;;9.77;;
10174;SDS011;18221;38.704;0.152;2023-03-21T09:12:49;12.13;;;7.90;;
10174;SDS011;18221;38.704;0.152;2023-03-21T09:15:21;12.53;;;7.67;;
10174;SDS011;18221;38.704;0.152;2023-03-21T09:17:53;9.80;;;6.70;;
10174;SDS011;18221;38.704;0.152;2023-03-21T09:20:24;13.33;;;8.93;;
10174;SDS011;18221;38.704;0.152;2023-03-21T09:22:58;15.00;;;8.93;;
10174;SDS011;18221;38.704;0.152;2023-03-21T09:41:10;13.93;;;8.77;;
10174;SDS011;18221;38.704;0.152;2023-03-21T09:44:03;13.93;;;8.40;;
10174;SDS011;18221;38.704;0.152;2023-03-21T09:46:50;10.63;;;7.43;;
10174;SDS011;18221;38.704;0.152;2023-03-21T09:49:29;13.63;;;9.53;;
10174;SDS011;18221;38.704;0.152;2023-03-21T09:52:15;12.90;;;9.10;;
10174;SDS011;18221;38.704;0.152;2023-03-21T09:55:12;18.53;;;10.10;;
10174;SDS011;18221;38.704;0.152;2023-03-21T09:57:49;12.93;;;8.37;;
10174;SDS011;18221;38.704;0.152;2023-03-21T10:00:30;13.77;;;8.43;;
10174;SDS011;18221;38.704;0.152;2023-03-21T10:03:04;11.33;;;7.50;;
10174;SDS011;18221;38.704;0.152;2023-03-21T10:05:47;13.03;;;8.53;;
10174;SDS011;18221;38.704;0.152;2023-03-21T10:08:26;16.60;;;9.60;;
10174;SDS011;18221;38.704;0.152;2023-03-21T10:13:49;17.67;;;9.33;;
10174;SDS011;18221;38.704;0.152;2023-03-21T10:16:26;13.77;;;8.23;;
10174;SDS011;18221;38.704;0.152;2023-03-21T10:18:58;12.60;;;7.33;;
10174;SDS011;18221;38.704;0.152;2023-03-21T10:21:34;6.80;;;6.07;;
10174;SDS011;18221;38.704;0.152;2023-03-21T10:24:10;9.07;;;6.03;;
10174;SDS011;18221;38.704;0.152;2023-03-21T10:26:42;10.17;;;7.30;;
10174;SDS011;18221;38.704;0.152;2023-03-21T10:29:15;8.63;;;7.13;;
10174;SDS011;18221;38.704;0.152;2023-03-21T10:31:49;10.50;;;6.93;;
10174;SDS011;18221;38.704;0.152;2023-03-21T10:34:22;11.40;;;7.50;;
10174;SDS011;18221;38.704;0.152;2023-03-21T10:36:58;13.30;;;7.90;;
10174;SDS011;18221;38.704;0.152;2023-03-21T10:39:31;14.67;;;8.60;;
10174;SDS011;18221;38.704;0.152;2023-03-21T10:42:03;12.50;;;7.23;;
10174;SDS011;18221;38.704;0.152;2023-03-21T10:44:34;12.80;;;8.53;;
10174;SDS011;18221;38.704;0.152;2023-03-21T10:47:04;16.30;;;8.37;;
10174;SDS011;18221;38.704;0.152;2023-03-21T10:49:35;11.83;;;8.77;;
10174;SDS011;18221;38.704;0.152;2023-03-21T10:52:05;12.97;;;8.30;;
10174;SDS011;18221;38.704;0.152;2023-03-21T10:54:37;15.00;;;8.70;;
10174;SDS011;18221;38.704;0.152;2023-03-21T10:57:08;11.17;;;7.33;;
10174;SDS011;18221;38.704;0.152;2023-03-21T10:59:43;13.80;;;8.87;;
10174;SDS011;18221;38.704;0.152;2023-03-21T11:02:19;14.77;;;10.57;;
10174;SDS011;18221;38.704;0.152;2023-03-21T11:04:54;18.17;;;11.47;;
10174;SDS011;18221;38.704;0.152;2023-03-21T11:07:26;19.77;;;12.97;;
10174;SDS011;18221;38.704;0.152;2023-03-21T11:09:57;19.67;;;12.70;;
10174;SDS011;18221;38.704;0.152;2023-03-21T11:12:28;16.63;;;11.93;;
10174;SDS011;18221;38.704;0.152;2023-03-21T11:15:25;22.67;;;14.80;;
10174;SDS011;18221;38.704;0.152;2023-03-21T11:17:58;20.57;;;14.33;;
10174;SDS011;18221;38.704;0.152;2023-03-21T11:20:41;20.37;;;14.43;;
10174;SDS011;18221;38.704;0.152;2023-03-21T11:23:16;18.97;;;12.80;;
10174;SDS011;18221;38.704;0.152;2023-03-21T11:25:47;18.07;;;12.17;;
10174;SDS011;18221;38.704;0.152;2023-03-21T11:28:17;20.27;;;12.87;;
10174;SDS011;18221;38.704;0.152;2023-03-21T11:30:52;19.33;;;13.40;;
10174;SDS011;18221;38.704;0.152;2023-03-21T11:33:25;17.90;;;12.70;;
10174;SDS011;18221;38.704;0.152;2023-03-21T11:36:01;21.03;;;14.20;;
10174;SDS011;18221;38.704;0.152;2023-03-21T11:38:33;22.73;;;14.70;;
10174;SDS011;18221;38.704;0.152;2023-03-21T11:41:05;20.03;;;14.87;;
10174;SDS011;18221;38.704;0.152;2023-03-21T11:43:34;18.83;;;14.63;;
10174;SDS011;18221;38.704;0.152;2023-03-21T11:46:06;20.87;;;14.83;;
10174;SDS011;18221;38.704;0.152;2023-03-21T11:48:39;24.93;;;14.80;;
10174;SDS011;18221;38.704;0.152;2023-03-21T11:51:16;20.23;;;14.77;;
10174;SDS011;18221;38.704;0.152;2023-03-21T11:53:57;23.47;;;16.37;;
10174;SDS011;18221;38.704;0.152;2023-03-21T11:56:39;24.57;;;17.00;;
10174;SDS011;18221;38.704;0.152;2023-03-21T11:59:25;26.83;;;19.00;;
10174;SDS011;18221;38.704;0.152;2023-03-21T12:02:27;26.13;;;17.27;;
10174;SDS011;18221;38.704;0.152;2023-03-21T12:05:31;22.70;;;15.60;;
10174;SDS011;18221;38.704;0.152;2023-03-21T12:08:06;20.27;;;14.60;;
10174;SDS011;18221;38.704;0.152;2023-03-21T12:10:53;21.80;;;15.07;;
10174;SDS011;18221;38.704;0.152;2023-03-21T12:13:34;17.93;;;13.97;;
10174;SDS011;18221;38.704;0.152;2023-03-21T12:16:27;18.03;;;13.20;;
10174;SDS011;18221;38.704;0.152;2023-03-21T12:19:14;18.27;;;13.70;;
10174;SDS011;18221;38.704;0.152;2023-03-21T12:22:09;22.57;;;13.07;;
10174;SDS011;18221;38.704;0.152;2023-03-21T12:24:48;17.33;;;13.63;;
10174;SDS011;18221;38.704;0.152;2023-03-21T12:27:24;18.60;;;13.63;;
10174;SDS011;18221;38.704;0.152;2023-03-21T12:30:18;17.60;;;13.80;;
10174;SDS011;18221;38.704;0.152;2023-03-21T12:33:11;18.73;;;13.80;;
10174;SDS011;18221;38.704;0.152;2023-03-21T12:36:09;20.23;;;15.07;;
10174;SDS011;18221;38.704;0.152;2023-03-21T12:38:54;24.40;;;16.00;;
10174;SDS011;18221;38.704;0.152;2023-03-21T12:41:33;21.83;;;15.97;;
10174;SDS011;18221;38.704;0.152;2023-03-21T12:44:10;23.43;;;15.83;;
10174;SDS011;18221;38.704;0.152;2023-03-21T12:46:43;19.87;;;16.67;;
10174;SDS011;18221;38.704;0.152;2023-03-21T12:49:19;19.80;;;15.93;;
10174;SDS011;18221;38.704;0.152;2023-03-21T12:51:58;21.00;;;16.50;;
10174;SDS011;18221;38.704;0.152;2023-03-21T12:54:32;20.90;;;14.73;;
10174;SDS011;18221;38.704;0.152;2023-03-21T12:57:05;19.40;;;15.87;;
10174;SDS011;18221;38.704;0.152;2023-03-21T12:59:45;19.20;;;16.17;;
10174;SDS011;18221;38.704;0.152;2023-03-21T13:02:22;19.10;;;15.50;;
10174;SDS011;18221;38.704;0.152;2023-03-21T13:04:59;16.90;;;14.10;;
10174;SDS011;18221;38.704;0.152;2023-03-21T13:07:44;15.27;;;13.67;;
10174;SDS011;18221;38.704;0.152;2023-03-21T13:10:20;14.10;;;12.37;;
10174;SDS011;18221;38.704;0.152;2023-03-21T13:12:59;17.30;;;13.03;;
10174;SDS011;18221;38.704;0.152;2023-03-21T13:15:43;16.93;;;12.40;;
10174;SDS011;18221;38.704;0.152;2023-03-21T13:18:31;14.73;;;12.33;;
10174;SDS011;18221;38.704;0.152;2023-03-21T13:21:14;14.57;;;11.03;;
10174;SDS011;18221;38.704;0.152;2023-03-21T13:23:57;16.53;;;11.80;;
10174;SDS011;18221;38.704;0.152;2023-03-21T13:26:32;12.23;;;10.80;;
10174;SDS011;18221;38.704;0.152;2023-03-21T13:29:12;17.37;;;12.10;;
10174;SDS011;18221;38.704;0.152;2023-03-21T13:31:49;15.30;;;11.17;;
10174;SDS011;18221;38.704;0.152;2023-03-21T13:34:22;13.27;;;11.53;;
10174;SDS011;18221;38.704;0.152;2023-03-21T13:36:52;17.03;;;10.47;;
10174;SDS011;18221;38.704;0.152;2023-03-21T13:39:26;12.07;;;9.83;;
10174;SDS011;18221;38.704;0.152;2023-03-21T13:45:44;13.60;;;8.47;;
10174;SDS011;18221;38.704;0.152;2023-03-21T13:48:25;9.20;;;7.00;;
10174;SDS011;18221;38.704;0.152;2023-03-21T13:50:58;10.10;;;6.77;;
10174;SDS011;18221;38.704;0.152;2023-03-21T13:53:30;9.83;;;7.13;;
10174;SDS011;18221;38.704;0.152;2023-03-21T13:56:06;15.43;;;7.13;;
10174;SDS011;18221;38.704;0.152;2023-03-21T13:58:57;13.60;;;7.47;;
10174;SDS011;18221;38.704;0.152;2023-03-21T14:01:30;10.90;;;6.57;;
10174;SDS011;18221;38.704;0.152;2023-03-21T14:04:09;9.97;;;6.27;;
10174;SDS011;18221;38.704;0.152;2023-03-21T14:06:43;11.37;;;6.20;;
10174;SDS011;18221;38.704;0.152;2023-03-21T14:09:19;8.50;;;6.10;;
10174;SDS011;18221;38.704;0.152;2023-03-21T14:11:56;7.27;;;5.30;;
10174;SDS011;18221;38.704;0.152;2023-03-21T14:14:29;12.47;;;5.40;;
10174;SDS011;18221;38.704;0.152;2023-03-21T14:17:10;8.00;;;5.60;;
10174;SDS011;18221;38.704;0.152;2023-03-21T14:19:39;8.23;;;5.40;;
10174;SDS011;18221;38.704;0.152;2023-03-21T14:22:09;7.30;;;5.07;;
10174;SDS011;18221;38.704;0.152;2023-03-21T14:24:45;9.27;;;5.20;;
10174;SDS011;18221;38.704;0.152;2023-03-21T14:27:16;9.00;;;6.20;;
10174;SDS011;18221;38.704;0.152;2023-03-21T14:29:45;14.33;;;5.20;;
10174;SDS011;18221;38.704;0.152;2023-03-21T14:32:17;11.53;;;5.20;;
10174;SDS011;18221;38.704;0.152;2023-03-21T14:34:50;7.83;;;5.07;;
10174;SDS011;18221;38.704;0.152;2023-03-21T14:37:25;11.50;;;5.77;;
10174;SDS011;18221;38.704;0.152;2023-03-21T14:40:00;7.60;;;4.93;;
10174;SDS011;18221;38.704;0.152;2023-03-21T14:42:35;9.83;;;5.00;;
10174;SDS011;18221;38.704;0.152;2023-03-21T14:45:13;9.47;;;5.90;;
10174;SDS011;18221;38.704;0.152;2023-03-21T14:47:53;6.90;;;4.63;;
10174;SDS011;18221;38.704;0.152;2023-03-21T14:50:32;10.93;;;5.50;;
10174;SDS011;18221;38.704;0.152;2023-03-21T14:53:07;8.10;;;4.53;;
10174;SDS011;18221;38.704;0.152;2023-03-21T14:55:43;8.83;;;5.57;;
10174;SDS011;18221;38.704;0.152;2023-03-21T14:58:18;9.60;;;5.03;;
10174;SDS011;18221;38.704;0.152;2023-03-21T15:00:48;9.70;;;5.40;;
10174;SDS011;18221;38.704;0.152;2023-03-21T15:03:19;11.10;;;5.60;;
10174;SDS011;18221;38.704;0.152;2023-03-21T15:05:51;8.80;;;5.23;;
10174;SDS011;18221;38.704;0.152;2023-03-21T15:08:22;9.90;;;5.43;;
10174;SDS011;18221;38.704;0.152;2023-03-21T15:10:55;8.03;;;5.07;;
10174;SDS011;18221;38.704;0.152;2023-03-21T15:13:29;7.90;;;5.10;;
10174;SDS011;18221;38.704;0.152;2023-03-21T15:16:01;10.87;;;4.97;;
10174;SDS011;18221;38.704;0.152;2023-03-21T15:18:32;10.20;;;5.10;;
10174;SDS011;18221;38.704;0.152;2023-03-21T15:21:04;8.80;;;5.00;;
10174;SDS011;18221;38.704;0.152;2023-03-21T15:23:39;9.80;;;5.10;;
10174;SDS011;18221;38.704;0.152;2023-03-21T15:26:12;11.27;;;6.50;;
10174;SDS011;18221;38.704;0.152;2023-03-21T15:28:44;12.83;;;6.07;;
10174;SDS011;18221;38.704;0.152;2023-03-21T15:31:16;9.23;;;6.10;;
10174;SDS011;18221;38.704;0.152;2023-03-21T15:33:48;15.40;;;6.20;;
10174;SDS011;18221;38.704;0.152;2023-03-21T15:36:20;11.37;;;6.47;;
10174;SDS011;18221;38.704;0.152;2023-03-21T15:38:52;12.20;;;6.40;;
10174;SDS011;18221;38.704;0.152;2023-03-21T15:41:25;12.10;;;6.87;;
10174;SDS011;18221;38.704;0.152;2023-03-21T15:44:04;10.40;;;7.07;;
10174;SDS011;18221;38.704;0.152;2023-03-21T15:46:42;12.27;;;6.43;;
10174;SDS011;18221;38.704;0.152;2023-03-21T15:49:17;10.30;;;6.13;;